ADDS METAR Data INFO
IDs: Format: Raw Decoded Include TAF

Data at: 1146 UTC 23 Jun 2018

PAFM 231108Z AUTO 24006KT 9SM RA OVC005 11/11 A2999 RMK AO2 P0001
PAFM 231056Z AUTO 23006KT 10SM -RA OVC007 11/11 A2999 RMK AO2 SLP170 P0002 T01110111
PAFM 231040Z AUTO 22004KT 10SM -RA BKN007 BKN016 OVC055 11/11 A2999 RMK AO2 P0002
PAFM 231033Z AUTO 23004KT 10SM -RA SCT007 BKN012 OVC055 11/11 A2999 RMK AO2 P0002
PAFM 231024Z AUTO 23004KT 10SM -RA SCT007 BKN046 OVC055 12/11 A2999 RMK AO2 P0001
PAFM 231014Z AUTO 22004KT 10SM -RA BKN007 OVC048 12/11 A2998 RMK AO2 CIG 005V012 P0001
PAFM 230956Z AUTO 23004KT 10SM -RA FEW005 SCT012 OVC048 12/11 A2998 RMK AO2 SLP166 P0003 T01170111
PAFM 230949Z AUTO 24004KT 10SM -RA SCT005 BKN015 OVC050 12/11 A2998 RMK AO2 P0002
PAFM 230937Z AUTO 24005KT 10SM -RA SCT003 BKN007 OVC048 12/11 A2998 RMK AO2 CIG 007V011 P0002
PAFM 230916Z AUTO 24004KT 10SM -RA BKN003 BKN007 OVC011 12/11 A2998 RMK AO2 P0001
PAFM 230856Z AUTO 25004KT 10SM -RA BKN009 BKN012 OVC055 12/11 A2997 RMK AO2 SLP163 P0005 60014 T01170111 53012
PAFM 230839Z AUTO VRB03KT 10SM -RA FEW008 BKN014 OVC055 12/11 A2997 RMK AO2 P0004
PAFM 230825Z AUTO 25003KT 10SM -RA BKN012 BKN023 OVC055 11/11 A2996 RMK AO2 P0003
PAFM 230801Z AUTO 28004KT 10SM -RA FEW009 BKN017 OVC060 12/11 A2996 RMK AO2 CIG 011V025 P0001
PAFM 230752Z AUTO 28004KT 10SM -RA BKN009 BKN017 OVC055 12/11 A2996 RMK AO2 CIG 007V013 SLP158 P0004 T01170106 402000117
PAFM 230751Z AUTO 28004KT 10SM -RA BKN009 BKN017 OVC055 12/11 A2996 RMK AO2 CIG 007V013 P0004 402000117
PAFM 230745Z AUTO VRB05KT 10SM -RA FEW009 SCT013 OVC055 12/11 A2995 RMK AO2 P0004
PAFM 230656Z AUTO 26005KT 9SM -RA BKN060 OVC070 12/11 A2994 RMK AO2 SLP153 P0005 T01170111
PAFM 230556Z AUTO VRB05KT 8SM -RA OVC047 12/11 A2994 RMK AO2 SLP150 P0004 60043 T01170111 10150 20117 52011
PAFM 230456Z AUTO 26008KT 10SM -RA OVC048 12/11 A2992 RMK AO2 SLP146 P0006 T01220111
PAFM 230356Z AUTO 25007KT 10SM -RA OVC043 13/12 A2991 RMK AO2 SLP143 P0007 T01280117
PAFM 230256Z AUTO 23009KT 10SM -RA SCT037 OVC044 13/13 A2990 RMK AO2 SLP139 P0005 60026 T01330128 51012
PAFM 230241Z AUTO 24008KT 10SM -RA SCT008 BKN035 OVC043 14/13 A2990 RMK AO2 P0004
PAFM 230208Z AUTO 25007KT 7SM RA BKN008 BKN019 OVC025 14/13 A2990 RMK AO2 CIG 006V013 P0001
PAFM 230156Z AUTO 24010KT 10SM RA SCT010 BKN017 OVC041 14/13 A2990 RMK AO2 SLP136 P0010 T01440133
PAFM 230128Z AUTO 24005KT 10SM RA BKN013 BKN021 OVC026 14/13 A2989 RMK AO2 P0004
PAFM 230056Z AUTO 24007KT 9SM RA BKN028 OVC034 14/13 A2988 RMK AO2 SLP132 P0011 T01440128
PAFM 230037Z AUTO 21004KT 10SM -RA BKN028 BKN035 OVC045 15/14 A2988 RMK AO2 P0004
PAFM 222356Z AUTO 27004KT 10SM RA BKN042 OVC050 15/13 A2987 RMK AO2 RAB32 SLP126 P0002 60002 T01500128 10167 20139 52003
PAFM 222256Z AUTO 26006KT 10SM SCT020 OVC036 16/12 A2986 RMK AO2 RAB24E34 SLP124 P0000 T01610122
PAFM 222241Z AUTO 28008KT 10SM SCT020 OVC034 16/12 A2986 RMK AO2 RAB24E34 P0000
PAFM 222156Z AUTO 26006KT 10SM SCT014 SCT022 OVC039 17/12 A2986 RMK AO2 SLP123 T01670122
PAFM 222147Z AUTO 27005KT 10SM BKN014 OVC039 16/12 A2986 RMK AO2
PAFM 222056Z AUTO 26006KT 10SM FEW013 OVC055 16/13 A2986 RMK AO2 SLP121 60000 T01610128 51006
PAFM 221956Z AUTO 27005KT 10SM OVC049 15/12 A2985 RMK AO2 RAB29E55 SLP120 P0000 T01500122
PAFM 221856Z AUTO VRB04KT 10SM OVC095 15/11 A2984 RMK AO2 RAB25E38 SLP116 P0000 T01500111
PAFM 221756Z AUTO 24003KT 10SM SCT046 OVC100 14/12 A2984 RMK AO2 SLP115 60001 T01440117 10156 20133 53014
PAFM 221656Z AUTO 00000KT 10SM BKN075 OVC095 14/11 A2982 RMK AO2 SLP109 T01440106
PAFM 221556Z AUTO 00000KT 10SM OVC065 14/11 A2981 RMK AO2 SLP106 T01390106
PAFM 221456Z AUTO 02003KT 10SM FEW055 OVC080 14/11 A2980 RMK AO2 RAB1359E48 SLP101 P0001 60001 T01390106 51012
PAFM 221356Z AUTO 36006KT 10SM OVC060 14/09 A2979 RMK AO2 SLP098 T01440094
PAFM 221256Z AUTO 03007KT 10SM OVC070 15/10 A2978 RMK AO2 SLP093 T01500100
PAFM 221156Z AUTO 00000KT 10SM BKN080 OVC090 15/11 A2976 RMK AO2 RAB15E35 SLP089 P0000 60000 T01500106 10217 20150 51014
PAFM 221056Z AUTO 02009KT 10SM OVC085 17/10 A2975 RMK AO2 RAB0957E17 SLP085 P0000 T01670100
PAFM 220956Z AUTO 09009KT 10SM OVC100 17/11 A2975 RMK AO2 RAE14 SLP083 P0000 T01720111
PAFM 220856Z AUTO 02008KT 10SM -RA OVC090 19/10 A2972 RMK AO2 RAB54 SLP075 P0000 60000 T01890100 53005
PAFM 220756Z AUTO 02011KT 10SM FEW095 20/09 A2970 RMK AO2 SLP068 T02000094 402500122
PAFM 220656Z AUTO 01007KT 10SM CLR 21/09 A2971 RMK AO2 SLP070 T02110094
PAFM 220556Z AUTO 02005KT 10SM CLR 22/10 A2971 RMK AO2 SLP070 60000 T02170100 10250 20217 55004
PAFM 220456Z AUTO 03008KT 10SM SCT090 22/09 A2971 RMK AO2 RAE0357 SLP070 T02220094
PAFM 220356Z AUTO 36006KT 10SM -RA BKN085 23/09 A2971 RMK AO2 RAB01 SLP070 P0000 T02280094
PAFM 220256Z AUTO 12005KT 10SM FEW090 24/08 A2972 RMK AO2 SLP075 T02390083 53002
PAFM 220156Z AUTO 18004KT 10SM FEW100 24/09 A2971 RMK AO2 SLP072 T02390094
PAFM 220056Z AUTO 06006KT 10SM CLR 25/08 A2971 RMK AO2 SLP071 T02500083
PAFM 212356Z AUTO 00000KT 10SM CLR 24/07 A2972 RMK AO2 SLP073 T02440072 10250 20183 58013